createdAt,value
2019-05-25T00:00:23.652Z,1.77
2019-05-25T00:02:58.700Z,2.77
2019-05-25T00:05:33.998Z,2.37
2019-05-25T00:08:08.979Z,2.30
2019-05-25T00:10:43.963Z,2.07
2019-05-25T00:13:19.051Z,2.40
2019-05-25T00:15:54.024Z,2.23
2019-05-25T00:18:29.192Z,1.87
2019-05-25T00:21:04.249Z,1.77
2019-05-25T00:23:39.239Z,1.90
2019-05-25T00:26:14.196Z,1.97
2019-05-25T00:28:49.459Z,2.70
2019-05-25T00:31:24.553Z,2.30
2019-05-25T00:34:00.293Z,1.90
2019-05-25T00:36:35.799Z,2.53
2019-05-25T00:39:10.857Z,2.37
2019-05-25T00:41:45.934Z,2.00
2019-05-25T00:44:20.928Z,1.77
2019-05-25T00:46:56.023Z,2.00
2019-05-25T00:49:31.031Z,1.97
2019-05-25T00:52:06.023Z,1.83
2019-05-25T00:54:41.113Z,2.57
2019-05-25T00:57:16.129Z,2.00
2019-05-25T00:59:51.122Z,1.93
2019-05-25T01:02:26.201Z,2.40
2019-05-25T01:05:01.182Z,2.30
2019-05-25T01:07:36.203Z,1.97
2019-05-25T01:10:12.699Z,2.17
2019-05-25T01:12:48.432Z,2.07
2019-05-25T01:15:24.005Z,1.93
2019-05-25T01:17:59.091Z,1.90
2019-05-25T01:20:34.186Z,2.20
2019-05-25T01:23:09.146Z,2.07
2019-05-25T01:25:44.527Z,1.63
2019-05-25T01:28:19.501Z,2.03
2019-05-25T01:30:54.481Z,2.33
2019-05-25T01:33:29.564Z,2.03
2019-05-25T01:36:04.552Z,2.33
2019-05-25T01:38:39.887Z,1.97
2019-05-25T01:41:14.891Z,1.97
2019-05-25T01:43:50.931Z,2.30
2019-05-25T01:46:25.907Z,1.90
2019-05-25T01:49:01.125Z,1.67
2019-05-25T01:51:36.082Z,2.47
2019-05-25T01:54:11.065Z,2.00
2019-05-25T01:56:46.031Z,2.10
2019-05-25T01:59:21.045Z,2.10
2019-05-25T02:01:56.149Z,2.07
2019-05-25T02:04:31.296Z,1.60
2019-05-25T02:07:06.368Z,2.17
2019-05-25T02:09:41.352Z,2.60
2019-05-25T02:12:16.459Z,2.10
2019-05-25T02:14:52.484Z,2.50
2019-05-25T02:17:27.487Z,2.03
2019-05-25T02:20:02.522Z,2.47
2019-05-25T02:22:38.551Z,2.67
2019-05-25T02:25:18.197Z,2.57
2019-05-25T02:27:51.157Z,2.73
2019-05-25T02:30:30.980Z,2.33
2019-05-25T02:33:05.942Z,2.10
2019-05-25T02:35:42.211Z,2.60
2019-05-25T02:38:17.298Z,2.40
2019-05-25T02:40:52.379Z,2.80
2019-05-25T02:43:27.352Z,2.37
2019-05-25T02:46:02.449Z,2.47
2019-05-25T02:48:37.505Z,2.50
2019-05-25T02:51:12.611Z,2.13
2019-05-25T02:53:47.710Z,2.37
2019-05-25T02:56:22.682Z,2.57
2019-05-25T02:58:57.759Z,2.20
2019-05-25T03:01:33.136Z,3.23
2019-05-25T03:04:08.192Z,2.50
2019-05-25T03:06:44.771Z,1.93
2019-05-25T03:09:22.036Z,1.67
2019-05-25T03:11:59.676Z,2.03
2019-05-25T03:14:34.845Z,2.17
2019-05-25T03:17:09.883Z,2.27
2019-05-25T03:19:44.851Z,2.27
2019-05-25T03:22:19.840Z,2.10
2019-05-25T03:24:54.917Z,2.17
2019-05-25T03:27:29.916Z,2.03
2019-05-25T03:30:06.332Z,2.33
2019-05-25T03:32:41.320Z,2.80
2019-05-25T03:35:16.308Z,2.00
2019-05-25T03:37:51.270Z,2.60
2019-05-25T03:40:26.262Z,2.20
2019-05-25T03:43:03.743Z,2.03
2019-05-25T03:45:38.936Z,2.20
2019-05-25T03:48:14.006Z,2.30
2019-05-25T03:50:49.134Z,2.30
2019-05-25T03:53:24.196Z,2.37
2019-05-25T03:56:05.715Z,2.07
2019-05-25T03:58:35.965Z,1.90
2019-05-25T04:01:11.699Z,2.50
2019-05-25T04:03:46.688Z,2.17
2019-05-25T04:06:21.762Z,2.37
2019-05-25T04:08:56.817Z,2.30
2019-05-25T04:11:34.114Z,2.60
2019-05-25T04:14:10.065Z,2.57
2019-05-25T04:16:45.068Z,3.00
2019-05-25T04:19:20.138Z,2.70
2019-05-25T04:21:55.138Z,2.80
2019-05-25T04:24:30.109Z,3.03
2019-05-25T04:27:09.284Z,2.30
2019-05-25T04:29:44.538Z,2.60
2019-05-25T04:32:20.397Z,3.03
2019-05-25T04:34:55.464Z,2.47
2019-05-25T04:37:30.566Z,2.57
2019-05-25T04:40:06.030Z,2.23
2019-05-25T04:42:42.097Z,1.97
2019-05-25T04:45:17.361Z,2.37
2019-05-25T04:47:52.433Z,2.03
2019-05-25T04:50:27.502Z,2.10
2019-05-25T04:53:02.591Z,2.10
2019-05-25T04:55:37.550Z,2.20
2019-05-25T04:58:12.534Z,2.17
2019-05-25T05:00:47.530Z,2.20
2019-05-25T05:03:22.535Z,2.40
2019-05-25T05:05:57.522Z,2.03
2019-05-25T05:08:35.595Z,2.13
2019-05-25T05:11:09.204Z,1.90
2019-05-25T05:13:44.202Z,1.70
2019-05-25T05:16:19.311Z,2.90
2019-05-25T05:18:54.294Z,2.10
2019-05-25T05:21:29.334Z,2.33
2019-05-25T05:24:04.372Z,2.37
2019-05-25T05:26:54.626Z,2.07
2019-05-25T05:29:16.162Z,2.07
2019-05-25T05:31:51.386Z,2.37
2019-05-25T05:34:26.483Z,2.53
2019-05-25T05:37:03.290Z,2.50
2019-05-25T05:39:38.378Z,2.40
2019-05-25T05:42:16.851Z,2.33
2019-05-25T05:44:53.974Z,2.50
2019-05-25T05:47:31.764Z,3.10
2019-05-25T05:50:08.860Z,2.27
2019-05-25T05:52:49.032Z,2.60
2019-05-25T05:55:33.392Z,2.60
2019-05-25T05:58:08.558Z,2.80
2019-05-25T06:00:44.546Z,2.57
2019-05-25T06:03:21.858Z,2.70
2019-05-25T06:05:57.859Z,2.80
2019-05-25T06:08:33.186Z,3.03
2019-05-25T06:11:08.368Z,3.30
2019-05-25T06:13:43.952Z,2.47
2019-05-25T06:16:19.150Z,3.37
2019-05-25T06:18:54.256Z,3.07
2019-05-25T06:21:29.650Z,2.70
2019-05-25T06:24:06.293Z,2.60
2019-05-25T06:26:41.472Z,2.77
2019-05-25T06:29:16.772Z,2.40
2019-05-25T06:31:52.047Z,2.77
2019-05-25T06:34:28.438Z,2.93
2019-05-25T06:37:03.607Z,2.90
2019-05-25T06:39:38.778Z,2.70
2019-05-25T06:42:13.910Z,3.20
2019-05-25T06:44:49.403Z,3.27
2019-05-25T06:47:24.615Z,3.40
2019-05-25T06:49:59.691Z,3.27
2019-05-25T06:52:37.656Z,3.47
2019-05-25T06:55:13.581Z,3.50
2019-05-25T06:57:49.024Z,4.10
2019-05-25T07:00:25.030Z,3.70
2019-05-25T07:03:00.334Z,3.70
2019-05-25T07:05:35.596Z,3.47
2019-05-25T07:08:10.952Z,3.40
2019-05-25T07:10:46.134Z,3.87
2019-05-25T07:13:21.353Z,3.70
2019-05-25T07:15:56.629Z,3.30
2019-05-25T07:18:35.247Z,3.50
2019-05-25T07:21:10.730Z,3.77
2019-05-25T07:23:46.070Z,3.50
2019-05-25T07:26:24.316Z,2.83
2019-05-25T07:29:02.049Z,3.80
2019-05-25T07:31:37.098Z,3.50
2019-05-25T07:34:14.887Z,3.57
2019-05-25T07:36:50.064Z,3.20
2019-05-25T07:39:25.514Z,3.33
2019-05-25T07:42:01.200Z,3.50
2019-05-25T07:44:36.651Z,3.50
2019-05-25T07:47:13.288Z,3.70
2019-05-25T07:49:48.946Z,2.90
2019-05-25T07:52:23.936Z,3.30
2019-05-25T07:54:59.039Z,3.13
2019-05-25T07:57:34.317Z,3.93
2019-05-25T08:00:10.425Z,3.30
2019-05-25T08:02:46.415Z,3.87
2019-05-25T08:05:24.832Z,3.10
2019-05-25T08:07:59.893Z,2.77
2019-05-25T08:10:38.709Z,2.60
2019-05-25T08:13:13.828Z,3.10
2019-05-25T08:15:49.073Z,2.60
2019-05-25T08:18:25.269Z,3.20
2019-05-25T08:21:00.372Z,2.80
2019-05-25T08:23:35.523Z,2.87
2019-05-25T08:26:10.678Z,2.90
2019-05-25T08:28:45.790Z,2.47
2019-05-25T08:31:20.846Z,2.60
2019-05-25T08:33:56.390Z,1.87
2019-05-25T08:36:31.614Z,2.23
2019-05-25T08:39:08.424Z,2.47
2019-05-25T08:41:45.580Z,1.40
2019-05-25T08:44:20.570Z,1.70
2019-05-25T08:46:56.670Z,1.50
2019-05-25T08:49:32.711Z,1.90
2019-05-25T08:52:07.893Z,1.83
2019-05-25T08:54:43.090Z,1.60
2019-05-25T08:57:18.736Z,2.60
2019-05-25T08:59:53.920Z,1.70
2019-05-25T09:02:29.160Z,1.73
2019-05-25T09:05:05.569Z,2.23
2019-05-25T09:07:41.816Z,1.80
2019-05-25T09:10:17.961Z,1.67
2019-05-25T09:12:53.069Z,1.23
2019-05-25T09:15:28.238Z,1.30
2019-05-25T09:18:07.296Z,1.50
2019-05-25T09:20:42.475Z,1.40
2019-05-25T09:23:17.608Z,1.43
2019-05-25T09:25:52.687Z,2.00
2019-05-25T09:28:27.949Z,1.80
2019-05-25T09:31:03.356Z,1.50
2019-05-25T09:33:41.015Z,1.90
2019-05-25T09:36:16.065Z,1.50
2019-05-25T09:38:51.324Z,1.33
2019-05-25T09:41:26.749Z,1.73
2019-05-25T09:44:04.068Z,1.37
2019-05-25T09:46:39.236Z,1.73
2019-05-25T09:49:14.965Z,1.53
2019-05-25T09:51:50.066Z,1.60
2019-05-25T09:54:25.387Z,1.80
2019-05-25T09:57:01.324Z,1.57
2019-05-25T09:59:36.525Z,1.87
2019-05-25T10:02:11.568Z,1.73
2019-05-25T10:04:46.784Z,2.00
2019-05-25T10:07:22.145Z,2.20
2019-05-25T10:09:57.406Z,1.97
2019-05-25T10:12:32.681Z,1.83
2019-05-25T10:15:08.170Z,2.03
2019-05-25T10:17:43.314Z,2.27
2019-05-25T10:20:19.209Z,2.27
2019-05-25T10:22:57.911Z,1.90
2019-05-25T10:25:33.821Z,2.37
2019-05-25T10:28:09.535Z,2.20
2019-05-25T10:30:45.072Z,2.07
2019-05-25T10:33:21.894Z,2.30
2019-05-25T10:35:57.171Z,2.00
2019-05-25T10:38:33.601Z,2.37
2019-05-25T10:41:08.677Z,2.27
2019-05-25T10:43:43.830Z,2.70
2019-05-25T10:46:19.035Z,2.17
2019-05-25T10:48:54.985Z,1.80
2019-05-25T10:51:31.061Z,2.20
2019-05-25T10:54:10.664Z,1.57
2019-05-25T10:56:45.994Z,2.30
2019-05-25T10:59:22.731Z,1.80
2019-05-25T11:02:00.623Z,1.80
2019-05-25T11:04:36.672Z,1.80
2019-05-25T11:07:12.537Z,1.50
2019-05-25T11:09:47.797Z,1.40
2019-05-25T11:12:26.048Z,1.30
2019-05-25T11:14:59.762Z,1.53
2019-05-25T11:17:34.924Z,1.77
2019-05-25T11:20:11.991Z,1.83
2019-05-25T11:22:47.491Z,1.30
2019-05-25T11:25:22.720Z,1.50
2019-05-25T11:27:58.089Z,1.20
2019-05-25T11:30:34.119Z,1.30
2019-05-25T11:33:10.835Z,1.30
2019-05-25T11:35:46.673Z,1.40
2019-05-25T11:38:21.947Z,0.97
2019-05-25T11:40:57.150Z,1.23
2019-05-25T11:43:32.427Z,1.37
2019-05-25T11:46:07.614Z,1.43
2019-05-25T11:48:43.971Z,2.40
2019-05-25T11:51:19.241Z,1.20
2019-05-25T11:53:54.677Z,1.43
2019-05-25T11:56:29.920Z,1.00
2019-05-25T11:59:05.125Z,1.57
2019-05-25T12:01:40.325Z,1.47
2019-05-25T12:04:15.658Z,1.50
2019-05-25T12:06:50.888Z,1.10
2019-05-25T12:09:26.782Z,1.60
2019-05-25T12:12:01.997Z,1.27
2019-05-25T12:14:37.344Z,1.50
2019-05-25T12:17:12.680Z,1.50
2019-05-25T12:19:48.136Z,1.23
2019-05-25T12:22:23.467Z,1.20
2019-05-25T12:24:58.846Z,1.27
2019-05-25T12:27:34.135Z,1.20
2019-05-25T12:30:11.084Z,1.10
2019-05-25T12:32:46.358Z,1.50
2019-05-25T12:35:24.484Z,1.17
2019-05-25T12:37:59.953Z,1.50
2019-05-25T12:40:35.263Z,1.87
2019-05-25T12:43:10.503Z,1.60
2019-05-25T12:45:45.664Z,1.60
2019-05-25T12:48:20.895Z,1.43
2019-05-25T12:50:56.890Z,1.30
2019-05-25T12:53:32.918Z,1.27
2019-05-25T12:56:08.072Z,1.30
2019-05-25T12:58:45.215Z,1.33
2019-05-25T13:01:20.218Z,1.37
2019-05-25T13:03:55.443Z,1.43
2019-05-25T13:06:30.525Z,1.60
2019-05-25T13:09:07.292Z,2.33
2019-05-25T13:11:42.270Z,1.90
2019-05-25T13:14:17.601Z,1.67
2019-05-25T13:16:52.589Z,1.90
2019-05-25T13:19:27.637Z,1.60
2019-05-25T13:22:02.838Z,1.57
2019-05-25T13:24:37.974Z,1.73
2019-05-25T13:27:12.989Z,1.77
2019-05-25T13:29:48.089Z,1.83
2019-05-25T13:32:23.100Z,1.77
2019-05-25T13:34:58.091Z,1.90
2019-05-25T13:37:33.158Z,2.00
2019-05-25T13:40:09.800Z,1.70
2019-05-25T13:42:44.893Z,1.80
2019-05-25T13:45:20.054Z,1.50
2019-05-25T13:47:55.155Z,2.03
2019-05-25T13:50:30.240Z,1.90
2019-05-25T13:53:06.011Z,1.97
2019-05-25T13:55:42.150Z,1.80
2019-05-25T13:58:17.164Z,1.77
2019-05-25T14:00:52.203Z,1.60
2019-05-25T14:03:27.324Z,1.60
2019-05-25T14:06:02.405Z,1.80
2019-05-25T14:08:37.703Z,1.77
2019-05-25T14:11:12.778Z,2.03
2019-05-25T14:13:47.889Z,2.10
2019-05-25T14:16:22.868Z,1.40
2019-05-25T14:18:57.846Z,1.67
2019-05-25T14:21:33.069Z,2.03
2019-05-25T14:24:08.075Z,1.83
2019-05-25T14:26:43.207Z,1.80
2019-05-25T14:29:18.955Z,1.63
2019-05-25T14:31:54.240Z,1.90
2019-05-25T14:34:29.269Z,1.87
2019-05-25T14:37:04.503Z,1.93
2019-05-25T14:39:39.507Z,2.10
2019-05-25T14:42:14.518Z,2.13
2019-05-25T14:44:49.631Z,1.97
2019-05-25T14:47:24.606Z,1.80
2019-05-25T14:49:59.953Z,2.03
2019-05-25T14:52:35.056Z,2.37
2019-05-25T14:55:10.576Z,2.00
2019-05-25T14:57:45.597Z,1.93
2019-05-25T15:00:21.457Z,1.87
2019-05-25T15:02:56.553Z,1.87
2019-05-25T15:05:31.979Z,1.53
2019-05-25T15:08:07.228Z,1.70
2019-05-25T15:10:42.311Z,1.97
2019-05-25T15:13:17.478Z,1.50
2019-05-25T15:15:53.010Z,1.63
2019-05-25T15:18:29.108Z,2.17
2019-05-25T15:21:05.183Z,1.73
2019-05-25T15:23:41.555Z,2.20
2019-05-25T15:26:17.602Z,1.50
2019-05-25T15:28:53.100Z,1.63
2019-05-25T15:31:28.358Z,1.70
2019-05-25T15:34:03.601Z,2.10
2019-05-25T15:36:38.752Z,1.57
2019-05-25T15:39:14.085Z,1.90
2019-05-25T15:41:52.399Z,1.77
2019-05-25T15:44:27.475Z,1.50
2019-05-25T15:47:04.957Z,1.50
2019-05-25T15:49:39.600Z,1.50
2019-05-25T15:52:14.948Z,1.60
2019-05-25T15:54:50.289Z,1.97
2019-05-25T15:57:26.027Z,1.63
2019-05-25T16:00:01.226Z,1.87
2019-05-25T16:02:37.554Z,1.50
2019-05-25T16:05:13.607Z,1.70
2019-05-25T16:07:54.192Z,1.33
2019-05-25T16:10:29.728Z,1.90
2019-05-25T16:13:05.244Z,1.60
2019-05-25T16:15:41.266Z,1.63
2019-05-25T16:18:17.211Z,1.70
2019-05-25T16:20:52.540Z,1.87
2019-05-25T16:23:27.598Z,1.40
2019-05-25T16:26:02.854Z,1.70
2019-05-25T16:28:38.028Z,1.63
2019-05-25T16:31:15.526Z,1.53
2019-05-25T16:33:51.410Z,2.00
2019-05-25T16:36:26.710Z,1.70
2019-05-25T16:39:01.995Z,2.13
2019-05-25T16:41:38.448Z,1.87
2019-05-25T16:44:13.827Z,1.83
2019-05-25T16:46:48.902Z,1.80
2019-05-25T16:49:24.570Z,2.73
2019-05-25T16:51:59.702Z,1.90
2019-05-25T16:54:34.694Z,2.13
2019-05-25T16:57:10.084Z,2.30
2019-05-25T16:59:45.063Z,1.23
2019-05-25T17:02:20.171Z,1.53
2019-05-25T17:04:55.136Z,1.60
2019-05-25T17:07:30.241Z,1.60
2019-05-25T17:10:07.382Z,1.20
2019-05-25T17:12:42.470Z,1.83
2019-05-25T17:15:17.733Z,2.40
2019-05-25T17:17:54.348Z,2.20
2019-05-25T17:20:29.733Z,2.03
2019-05-25T17:23:04.832Z,1.70
2019-05-25T17:25:39.821Z,2.03
2019-05-25T17:28:15.892Z,1.87
2019-05-25T17:30:50.855Z,1.90
2019-05-25T17:33:26.490Z,2.00
2019-05-25T17:36:01.462Z,1.60
2019-05-25T17:38:37.110Z,1.60
2019-05-25T17:41:12.089Z,1.67
2019-05-25T17:43:48.212Z,1.70
2019-05-25T17:46:23.313Z,1.90
2019-05-25T17:48:58.314Z,1.77
2019-05-25T17:51:33.423Z,1.70
2019-05-25T17:54:08.421Z,1.60
2019-05-25T17:56:43.402Z,2.40
2019-05-25T17:59:18.531Z,2.30
2019-05-25T18:01:53.542Z,2.13
2019-05-25T18:04:28.525Z,2.30
2019-05-25T18:07:05.306Z,2.00
2019-05-25T18:09:40.447Z,1.93
2019-05-25T18:12:15.471Z,1.67
2019-05-25T18:14:51.743Z,1.70
2019-05-25T18:17:28.155Z,1.67
2019-05-25T18:20:04.049Z,1.77
2019-05-25T18:22:39.100Z,1.53
2019-05-25T18:25:14.271Z,1.53
2019-05-25T18:27:49.403Z,1.67
2019-05-25T18:30:25.104Z,1.93
2019-05-25T18:33:00.127Z,1.40
2019-05-25T18:35:35.456Z,1.50
2019-05-25T18:38:10.527Z,1.43
2019-05-25T18:40:45.541Z,1.43
2019-05-25T18:43:20.658Z,1.53
2019-05-25T18:45:55.888Z,1.30
2019-05-25T18:48:36.062Z,1.73
2019-05-25T18:51:11.248Z,1.40
2019-05-25T18:53:47.013Z,1.60
2019-05-25T18:56:22.053Z,1.27
2019-05-25T18:58:57.162Z,1.47
2019-05-25T19:01:32.161Z,1.60
2019-05-25T19:04:08.044Z,1.90
2019-05-25T19:06:43.058Z,1.73
2019-05-25T19:09:18.106Z,1.73
2019-05-25T19:11:53.193Z,1.83
2019-05-25T19:14:28.212Z,1.97
2019-05-25T19:17:03.290Z,1.40
2019-05-25T19:19:39.238Z,1.40
2019-05-25T19:22:14.238Z,1.50
2019-05-25T19:24:49.267Z,1.70
2019-05-25T19:27:24.219Z,1.90
2019-05-25T19:29:59.325Z,1.60
2019-05-25T19:32:34.453Z,1.90
2019-05-25T19:35:09.881Z,1.80
2019-05-25T19:37:44.909Z,2.07
2019-05-25T19:40:20.540Z,1.97
2019-05-25T19:42:57.373Z,2.10
2019-05-25T19:45:33.010Z,1.47
2019-05-25T19:48:08.930Z,2.10
2019-05-25T19:50:43.980Z,1.80
2019-05-25T19:53:18.982Z,2.07
2019-05-25T19:55:54.106Z,2.30
2019-05-25T19:58:29.226Z,1.80
2019-05-25T20:01:04.359Z,2.00
2019-05-25T20:03:40.090Z,1.73
2019-05-25T20:06:15.229Z,2.13
2019-05-25T20:08:50.224Z,2.07
2019-05-25T20:11:25.232Z,2.27
2019-05-25T20:14:00.295Z,2.27
2019-05-25T20:16:35.313Z,2.07
2019-05-25T20:19:10.358Z,3.07
2019-05-25T20:21:45.375Z,2.70
2019-05-25T20:24:20.335Z,3.23
2019-05-25T20:42:45.087Z,3.47
2019-05-25T20:45:21.847Z,2.80
2019-05-25T20:47:57.086Z,2.57
2019-05-25T20:50:32.286Z,3.13
2019-05-25T20:53:07.350Z,2.67
2019-05-25T20:55:43.219Z,1.83
2019-05-25T20:58:18.341Z,3.13
2019-05-25T21:00:53.384Z,2.50
2019-05-25T21:03:29.097Z,2.80
2019-05-25T21:06:06.301Z,2.73
2019-05-25T21:08:41.847Z,2.20
2019-05-25T21:11:17.432Z,2.40
2019-05-25T21:13:57.623Z,2.83
2019-05-25T21:16:32.721Z,2.97
2019-05-25T21:19:07.685Z,3.10
2019-05-25T21:21:42.751Z,3.10
2019-05-25T21:24:18.133Z,3.17
2019-05-25T21:26:53.151Z,2.90
2019-05-25T21:29:28.691Z,2.93
2019-05-25T21:32:04.157Z,3.00
2019-05-25T21:34:39.157Z,3.10
2019-05-25T21:37:14.971Z,2.83
2019-05-25T21:39:50.046Z,2.67
2019-05-25T21:42:25.038Z,2.83
2019-05-25T21:45:00.010Z,2.77
2019-05-25T21:47:35.097Z,2.57
2019-05-25T21:50:10.867Z,3.20
2019-05-25T21:52:46.086Z,2.90
2019-05-25T21:55:24.590Z,3.47
2019-05-25T21:57:59.602Z,2.70
2019-05-25T22:00:37.765Z,2.33
2019-05-25T22:03:12.835Z,2.83
2019-05-25T22:05:47.839Z,2.97
2019-05-25T22:08:22.841Z,3.27
2019-05-25T22:10:57.873Z,3.00
2019-05-25T22:13:33.007Z,3.10
2019-05-25T22:16:09.321Z,5.00
2019-05-25T22:18:44.814Z,5.63
2019-05-25T22:21:19.817Z,5.00
2019-05-25T22:23:54.803Z,4.10
2019-05-25T22:26:30.058Z,3.90
2019-05-25T22:29:05.063Z,3.93
2019-05-25T22:31:40.063Z,3.70
2019-05-25T22:34:15.043Z,3.50
2019-05-25T22:36:50.203Z,3.47
2019-05-25T22:39:25.225Z,3.43
2019-05-25T22:42:00.316Z,3.60
2019-05-25T22:44:35.259Z,3.53
2019-05-25T22:47:10.547Z,3.00
2019-05-25T22:49:45.516Z,3.97
2019-05-25T22:52:20.563Z,3.50
2019-05-25T22:54:55.522Z,3.80
2019-05-25T22:57:30.880Z,3.10
2019-05-25T23:00:07.828Z,3.90
2019-05-25T23:02:44.023Z,4.23
2019-05-25T23:05:18.970Z,3.40
2019-05-25T23:07:53.975Z,4.80
2019-05-25T23:10:29.054Z,5.70
2019-05-25T23:13:04.074Z,5.40
2019-05-25T23:15:39.068Z,5.40
2019-05-25T23:18:14.191Z,4.47
2019-05-25T23:20:49.289Z,4.57
2019-05-25T23:23:24.294Z,3.50
2019-05-25T23:25:59.260Z,4.27
2019-05-25T23:28:35.027Z,4.13
2019-05-25T23:31:11.254Z,4.27
2019-05-25T23:33:46.209Z,4.50
2019-05-25T23:36:21.191Z,5.00
2019-05-25T23:38:56.377Z,4.50
2019-05-25T23:41:31.491Z,4.20
2019-05-25T23:44:06.532Z,5.00
2019-05-25T23:46:42.408Z,5.30
2019-05-25T23:49:17.531Z,5.13
2019-05-25T23:51:52.615Z,5.33
2019-05-25T23:54:27.852Z,5.60
2019-05-25T23:57:03.629Z,5.17
2019-05-25T23:59:38.810Z,5.20
